Southey, Canada
Current Conditions -  °F | °C
As of 4:00 AM on Saturday 25 Oct 2014 (Local Time) from CYQR Reporting Station
Clear Clear  
Wind Chill: 23°   Ceiling: Unl
Heat Index: 28°   Visibility: 15mi
Dew Point: 27°   Wind: 5mph
Humidity: 93%   Direction: 270°W
Pressure: 30.06"   Gusts: NA
Location:  50.93°N, 104.5°W
Report Text: CYQR 251000Z 27004KT 15SM SKC M02/M03 A3006 RMK SLP200
Loading
Personal Weather Stations






























Interactive Weather Map
Tropical Storm Tracking
New forecast layout! Learn more

10-Day Weather Forecast

Advertisements
Track Severe Weather on mobile